This is the latest recevied weather packets stored in our database for station/object ED4YAZ-13. If no packets are shown the sender has not sent any weather packets the latest 10 day(s).
| Time | Temp. | Humidity | Pressure | Rain* | Wind** | Luminosity | Snow |
|---|---|---|---|---|---|---|---|
| 1777987363 | 16.67° C | 37% | 1011.6 hPa | - | - | - | - |
| 1777986763 | 16.11° C | 36% | 1012.1 hPa | - | - | - | - |
| 1777986163 | 16.67° C | 37% | 1011.8 hPa | - | - | - | - |
| 1777985563 | 16.67° C | 37% | 1011.7 hPa | - | - | - | - |
| 1777984963 | 15.56° C | 38% | 1012.5 hPa | - | - | - | - |
| 1777984363 | 16.11° C | 37% | 1012.2 hPa | - | - | - | - |
| 1777984363 | 16.11° C | 37% | 1012.2 hPa | - | - | - | - |
| 1777983763 | 16.11° C | 38% | 1012.1 hPa | - | - | - | - |
| 1777983163 | 15° C | 40% | 1012.6 hPa | - | - | - | - |
| 1777982557 | 14.44° C | 43% | 1013.3 hPa | - | - | - | - |
| 1777981957 | 14.44° C | 42% | 1013.1 hPa | - | - | - | - |
| 1777981357 | 14.44° C | 41% | 1013.3 hPa | - | - | - | - |
| 1777980745 | 15.56° C | 40% | 1012.6 hPa | - | - | - | - |
| 1777980145 | 15° C | 45% | 1012.9 hPa | - | - | - | - |
| 1777979542 | 13.89° C | 46% | 1013.6 hPa | - | - | - | - |
| 1777978942 | 13.33° C | 49% | 1014 hPa | - | - | - | - |
| 1777978942 | 13.33° C | 49% | 1014 hPa | - | - | - | - |
| 1777978343 | 13.89° C | 46% | 1013.5 hPa | - | - | - | - |
| 1777977743 | 14.44° C | 45% | 1013.5 hPa | - | - | - | - |
| 1777977143 | 13.33° C | 50% | 1014 hPa | - | - | - | - |
| 1777976543 | 15° C | 46% | 1013.2 hPa | - | - | - | - |
| 1777975942 | 13.89° C | 52% | 1013.8 hPa | - | - | - | - |
| 1777975342 | 13.33° C | 54% | 1014.1 hPa | - | - | - | - |
| 1777974733 | 13.89° C | 53% | 1013.9 hPa | - | - | - | - |
| 1777974728 | 13.89° C | 53% | 1013.9 hPa | - | - | - | - |
* Rain since midnight (hover to see other rain measurements)
** Current wind speed in m/s (hover to see current wind gust speed)